sensor_id;sensor_type;location;lat;lon;timestamp;pressure;altitude;pressure_sealevel;temperature;humidity
70445;BME280;57902;49.638;11.070;2022-07-25T00:00:11;98154.53;;;21.50;55.74
70445;BME280;57902;49.638;11.070;2022-07-25T00:02:38;98145.38;;;21.67;55.41
70445;BME280;57902;49.638;11.070;2022-07-25T00:05:05;98144.03;;;21.84;54.69
70445;BME280;57902;49.638;11.070;2022-07-25T00:07:32;98145.47;;;22.00;54.19
70445;BME280;57902;49.638;11.070;2022-07-25T00:09:58;98140.09;;;22.13;53.78
70445;BME280;57902;49.638;11.070;2022-07-25T00:12:25;98143.53;;;22.25;53.20
70445;BME280;57902;49.638;11.070;2022-07-25T00:14:52;98138.13;;;22.37;53.24
70445;BME280;57902;49.638;11.070;2022-07-25T00:17:18;98138.47;;;22.44;53.07
70445;BME280;57902;49.638;11.070;2022-07-25T00:19:45;98139.66;;;22.51;52.72
70445;BME280;57902;49.638;11.070;2022-07-25T00:22:11;98136.06;;;22.52;53.12
70445;BME280;57902;49.638;11.070;2022-07-25T00:24:38;98132.28;;;22.45;53.66
70445;BME280;57902;49.638;11.070;2022-07-25T00:27:06;98132.72;;;22.50;52.34
70445;BME280;57902;49.638;11.070;2022-07-25T00:29:33;98136.31;;;22.49;52.06
70445;BME280;57902;49.638;11.070;2022-07-25T00:32:03;98135.34;;;22.50;52.18
70445;BME280;57902;49.638;11.070;2022-07-25T00:34:30;98135.22;;;22.52;52.52
70445;BME280;57902;49.638;11.070;2022-07-25T00:36:56;98130.81;;;22.52;52.06
70445;BME280;57902;49.638;11.070;2022-07-25T00:39:23;98131.53;;;22.54;52.25
70445;BME280;57902;49.638;11.070;2022-07-25T00:41:49;98131.25;;;22.58;52.35
70445;BME280;57902;49.638;11.070;2022-07-25T00:44:29;98133.06;;;22.57;52.25
70445;BME280;57902;49.638;11.070;2022-07-25T00:46:56;98130.31;;;22.59;52.33
70445;BME280;57902;49.638;11.070;2022-07-25T00:49:24;98126.34;;;22.64;51.67
70445;BME280;57902;49.638;11.070;2022-07-25T00:51:52;98127.06;;;22.66;52.31
70445;BME280;57902;49.638;11.070;2022-07-25T00:54:19;98122.88;;;22.64;52.11
70445;BME280;57902;49.638;11.070;2022-07-25T00:56:47;98119.91;;;22.68;51.68
70445;BME280;57902;49.638;11.070;2022-07-25T00:59:14;98125.97;;;22.69;51.87
70445;BME280;57902;49.638;11.070;2022-07-25T01:01:42;98120.47;;;22.72;51.43
70445;BME280;57902;49.638;11.070;2022-07-25T01:04:10;98118.53;;;22.74;51.75
70445;BME280;57902;49.638;11.070;2022-07-25T01:06:37;98119.50;;;22.73;51.64
70445;BME280;57902;49.638;11.070;2022-07-25T01:09:04;98115.56;;;22.79;51.12
70445;BME280;57902;49.638;11.070;2022-07-25T01:11:30;98108.75;;;22.76;51.70
70445;BME280;57902;49.638;11.070;2022-07-25T01:13:57;98111.38;;;22.76;51.87
70445;BME280;57902;49.638;11.070;2022-07-25T01:16:23;98114.56;;;22.80;51.46
70445;BME280;57902;49.638;11.070;2022-07-25T01:18:50;98104.44;;;22.75;51.66
70445;BME280;57902;49.638;11.070;2022-07-25T01:21:16;98116.25;;;22.81;51.08
70445;BME280;57902;49.638;11.070;2022-07-25T01:23:43;98104.91;;;22.80;51.12
70445;BME280;57902;49.638;11.070;2022-07-25T01:26:09;98105.13;;;22.77;51.57
70445;BME280;57902;49.638;11.070;2022-07-25T01:28:36;98102.50;;;22.77;51.62
70445;BME280;57902;49.638;11.070;2022-07-25T01:31:02;98105.03;;;22.79;51.44
70445;BME280;57902;49.638;11.070;2022-07-25T01:33:30;98093.66;;;22.78;51.47
70445;BME280;57902;49.638;11.070;2022-07-25T01:35:56;98089.13;;;22.80;51.62
70445;BME280;57902;49.638;11.070;2022-07-25T01:38:23;98083.03;;;22.80;51.36
70445;BME280;57902;49.638;11.070;2022-07-25T01:40:49;98085.78;;;22.78;51.68
70445;BME280;57902;49.638;11.070;2022-07-25T01:43:16;98086.75;;;22.77;51.37
70445;BME280;57902;49.638;11.070;2022-07-25T01:45:42;98085.09;;;22.76;51.46
70445;BME280;57902;49.638;11.070;2022-07-25T01:48:09;98084.25;;;22.76;51.72
70445;BME280;57902;49.638;11.070;2022-07-25T01:50:35;98083.69;;;22.72;52.09
70445;BME280;57902;49.638;11.070;2022-07-25T01:53:02;98084.75;;;22.69;51.90
70445;BME280;57902;49.638;11.070;2022-07-25T01:55:29;98091.81;;;22.69;52.81
70445;BME280;57902;49.638;11.070;2022-07-25T01:57:57;98088.59;;;22.65;52.61
70445;BME280;57902;49.638;11.070;2022-07-25T02:00:27;98085.31;;;22.52;53.54
70445;BME280;57902;49.638;11.070;2022-07-25T02:02:53;98077.28;;;22.32;54.13
70445;BME280;57902;49.638;11.070;2022-07-25T02:05:40;98073.34;;;22.15;54.51
70445;BME280;57902;49.638;11.070;2022-07-25T02:08:06;98077.53;;;22.07;53.82
70445;BME280;57902;49.638;11.070;2022-07-25T02:10:36;98074.22;;;22.05;53.68
70445;BME280;57902;49.638;11.070;2022-07-25T02:13:03;98075.16;;;22.03;54.15
70445;BME280;57902;49.638;11.070;2022-07-25T02:15:29;98077.78;;;22.03;54.31
70445;BME280;57902;49.638;11.070;2022-07-25T02:17:56;98069.66;;;22.07;54.02
70445;BME280;57902;49.638;11.070;2022-07-25T02:20:22;98078.66;;;22.04;54.68
70445;BME280;57902;49.638;11.070;2022-07-25T02:22:49;98076.28;;;22.01;54.29
70445;BME280;57902;49.638;11.070;2022-07-25T02:25:15;98080.97;;;21.52;55.56
70445;BME280;57902;49.638;11.070;2022-07-25T02:27:42;98078.88;;;21.10;56.89
70445;BME280;57902;49.638;11.070;2022-07-25T02:30:09;98081.94;;;20.93;57.72
70445;BME280;57902;49.638;11.070;2022-07-25T02:32:35;98070.41;;;20.60;58.62
70445;BME280;57902;49.638;11.070;2022-07-25T02:35:03;98077.94;;;20.40;59.14
70445;BME280;57902;49.638;11.070;2022-07-25T02:37:38;98071.22;;;20.25;59.74
70445;BME280;57902;49.638;11.070;2022-07-25T02:40:05;98081.09;;;20.08;60.65
70445;BME280;57902;49.638;11.070;2022-07-25T02:42:31;98068.19;;;19.94;61.23
70445;BME280;57902;49.638;11.070;2022-07-25T02:44:58;98078.34;;;19.86;61.69
70445;BME280;57902;49.638;11.070;2022-07-25T02:47:24;98090.38;;;19.88;60.76
70445;BME280;57902;49.638;11.070;2022-07-25T02:49:51;98087.88;;;19.74;61.49
70445;BME280;57902;49.638;11.070;2022-07-25T02:52:17;98088.91;;;19.71;61.93
70445;BME280;57902;49.638;11.070;2022-07-25T02:54:44;98086.03;;;19.63;62.00
70445;BME280;57902;49.638;11.070;2022-07-25T02:57:10;98076.41;;;19.51;62.45
70445;BME280;57902;49.638;11.070;2022-07-25T02:59:37;98083.44;;;19.37;62.81
70445;BME280;57902;49.638;11.070;2022-07-25T03:02:04;98085.66;;;19.31;63.33
70445;BME280;57902;49.638;11.070;2022-07-25T03:04:33;98089.31;;;19.28;63.31
70445;BME280;57902;49.638;11.070;2022-07-25T03:07:00;98091.47;;;19.21;63.81
70445;BME280;57902;49.638;11.070;2022-07-25T03:09:26;98088.56;;;19.13;64.00
70445;BME280;57902;49.638;11.070;2022-07-25T03:11:53;98085.09;;;19.13;64.00
70445;BME280;57902;49.638;11.070;2022-07-25T03:14:20;98094.09;;;19.09;64.03
70445;BME280;57902;49.638;11.070;2022-07-25T03:16:46;98086.06;;;19.12;63.55
70445;BME280;57902;49.638;11.070;2022-07-25T03:19:13;98080.84;;;19.12;64.58
70445;BME280;57902;49.638;11.070;2022-07-25T03:21:39;98082.28;;;19.16;63.44
70445;BME280;57902;49.638;11.070;2022-07-25T03:24:06;98073.81;;;19.12;64.50
70445;BME280;57902;49.638;11.070;2022-07-25T03:26:33;98073.19;;;19.09;64.64
70445;BME280;57902;49.638;11.070;2022-07-25T03:28:59;98067.03;;;19.10;63.78
70445;BME280;57902;49.638;11.070;2022-07-25T03:31:26;98065.44;;;19.07;64.14
70445;BME280;57902;49.638;11.070;2022-07-25T03:33:53;98060.22;;;19.07;64.30
70445;BME280;57902;49.638;11.070;2022-07-25T03:36:20;98051.66;;;19.05;64.12
70445;BME280;57902;49.638;11.070;2022-07-25T03:38:46;98054.19;;;19.06;64.43
70445;BME280;57902;49.638;11.070;2022-07-25T03:41:13;98050.41;;;19.11;63.69
70445;BME280;57902;49.638;11.070;2022-07-25T03:43:39;98048.13;;;19.06;64.57
70445;BME280;57902;49.638;11.070;2022-07-25T03:46:06;98050.09;;;19.02;64.97
70445;BME280;57902;49.638;11.070;2022-07-25T03:48:32;98043.22;;;19.01;64.63
70445;BME280;57902;49.638;11.070;2022-07-25T03:50:59;98043.31;;;19.00;65.16
70445;BME280;57902;49.638;11.070;2022-07-25T03:53:32;98043.00;;;19.04;64.29
70445;BME280;57902;49.638;11.070;2022-07-25T03:55:59;98037.88;;;19.03;64.46
70445;BME280;57902;49.638;11.070;2022-07-25T03:58:28;98030.88;;;19.03;64.76
70445;BME280;57902;49.638;11.070;2022-07-25T04:00:54;98041.13;;;19.06;65.35
70445;BME280;57902;49.638;11.070;2022-07-25T04:03:23;98028.59;;;19.12;64.27
70445;BME280;57902;49.638;11.070;2022-07-25T04:05:50;98028.59;;;19.12;64.81
70445;BME280;57902;49.638;11.070;2022-07-25T04:08:16;98040.69;;;19.13;64.48
70445;BME280;57902;49.638;11.070;2022-07-25T04:10:43;98032.13;;;19.11;65.15
70445;BME280;57902;49.638;11.070;2022-07-25T04:13:10;98035.56;;;19.24;64.06
70445;BME280;57902;49.638;11.070;2022-07-25T04:15:36;98023.84;;;19.43;63.73
70445;BME280;57902;49.638;11.070;2022-07-25T04:18:03;98020.47;;;19.77;62.96
70445;BME280;57902;49.638;11.070;2022-07-25T04:20:35;98022.31;;;20.25;61.87
70445;BME280;57902;49.638;11.070;2022-07-25T04:23:02;98019.16;;;20.80;60.43
70445;BME280;57902;49.638;11.070;2022-07-25T04:25:29;98026.22;;;21.36;59.18
70445;BME280;57902;49.638;11.070;2022-07-25T04:27:56;98019.72;;;21.97;57.13
70445;BME280;57902;49.638;11.070;2022-07-25T04:30:38;98015.88;;;22.66;54.06
70445;BME280;57902;49.638;11.070;2022-07-25T04:33:04;98017.84;;;23.26;52.21
70445;BME280;57902;49.638;11.070;2022-07-25T04:35:31;98018.13;;;23.63;51.32
70445;BME280;57902;49.638;11.070;2022-07-25T04:37:57;98015.34;;;24.05;49.84
70445;BME280;57902;49.638;11.070;2022-07-25T04:40:24;98014.22;;;24.47;49.41
70445;BME280;57902;49.638;11.070;2022-07-25T04:42:50;98021.66;;;24.91;47.94
70445;BME280;57902;49.638;11.070;2022-07-25T04:45:17;98017.38;;;25.27;46.04
70445;BME280;57902;49.638;11.070;2022-07-25T04:47:43;98021.13;;;25.62;45.89
70445;BME280;57902;49.638;11.070;2022-07-25T04:50:10;98019.69;;;25.96;44.72
70445;BME280;57902;49.638;11.070;2022-07-25T04:52:36;98024.31;;;26.30;44.43
70445;BME280;57902;49.638;11.070;2022-07-25T04:55:04;98019.59;;;26.60;43.12
70445;BME280;57902;49.638;11.070;2022-07-25T04:57:30;98009.88;;;26.86;42.57
70445;BME280;57902;49.638;11.070;2022-07-25T04:59:57;98009.03;;;27.12;42.57
70445;BME280;57902;49.638;11.070;2022-07-25T05:02:24;98003.75;;;27.47;41.92
70445;BME280;57902;49.638;11.070;2022-07-25T05:04:51;98000.47;;;27.53;40.62
70445;BME280;57902;49.638;11.070;2022-07-25T05:07:18;97996.75;;;27.80;40.76
70445;BME280;57902;49.638;11.070;2022-07-25T05:09:44;97990.34;;;27.99;40.00
70445;BME280;57902;49.638;11.070;2022-07-25T05:12:11;97993.00;;;28.16;40.98
70445;BME280;57902;49.638;11.070;2022-07-25T05:14:37;97985.72;;;28.42;39.68
70445;BME280;57902;49.638;11.070;2022-07-25T05:17:04;97992.69;;;28.68;38.66
70445;BME280;57902;49.638;11.070;2022-07-25T05:19:30;97994.97;;;28.88;37.75
70445;BME280;57902;49.638;11.070;2022-07-25T05:21:57;97995.94;;;29.03;37.84
70445;BME280;57902;49.638;11.070;2022-07-25T05:24:23;97998.47;;;29.44;37.45
70445;BME280;57902;49.638;11.070;2022-07-25T05:26:50;98007.25;;;29.45;37.37
70445;BME280;57902;49.638;11.070;2022-07-25T05:29:17;98003.47;;;29.71;37.37
70445;BME280;57902;49.638;11.070;2022-07-25T05:31:43;98005.03;;;29.57;37.95
70445;BME280;57902;49.638;11.070;2022-07-25T05:34:10;98006.59;;;29.74;36.06
70445;BME280;57902;49.638;11.070;2022-07-25T05:36:36;98003.72;;;30.15;35.56
70445;BME280;57902;49.638;11.070;2022-07-25T05:39:03;97997.66;;;30.22;35.44
70445;BME280;57902;49.638;11.070;2022-07-25T05:41:30;98005.72;;;30.36;36.03
70445;BME280;57902;49.638;11.070;2022-07-25T05:43:56;98004.34;;;30.41;35.21
70445;BME280;57902;49.638;11.070;2022-07-25T05:46:23;97999.75;;;30.73;34.60
70445;BME280;57902;49.638;11.070;2022-07-25T05:48:50;97998.56;;;30.60;34.64
70445;BME280;57902;49.638;11.070;2022-07-25T05:51:17;98009.41;;;30.88;33.51
70445;BME280;57902;49.638;11.070;2022-07-25T05:53:44;98006.97;;;31.02;35.08
70445;BME280;57902;49.638;11.070;2022-07-25T05:56:10;98007.88;;;30.94;34.93
70445;BME280;57902;49.638;11.070;2022-07-25T05:58:37;98002.31;;;31.19;33.84
70445;BME280;57902;49.638;11.070;2022-07-25T06:01:07;97998.53;;;31.28;34.48
70445;BME280;57902;49.638;11.070;2022-07-25T06:03:33;98002.91;;;31.87;32.54
70445;BME280;57902;49.638;11.070;2022-07-25T06:06:00;97993.63;;;31.32;35.16
70445;BME280;57902;49.638;11.070;2022-07-25T06:08:26;97998.03;;;31.54;33.60
70445;BME280;57902;49.638;11.070;2022-07-25T06:10:59;98001.22;;;31.80;33.85
70445;BME280;57902;49.638;11.070;2022-07-25T06:13:27;97999.81;;;31.84;33.13
70445;BME280;57902;49.638;11.070;2022-07-25T06:15:53;98000.19;;;32.02;32.51
70445;BME280;57902;49.638;11.070;2022-07-25T06:18:21;97996.28;;;32.20;32.62
70445;BME280;57902;49.638;11.070;2022-07-25T06:20:48;97994.97;;;32.31;32.60
70445;BME280;57902;49.638;11.070;2022-07-25T06:23:15;98003.19;;;32.57;32.10
70445;BME280;57902;49.638;11.070;2022-07-25T06:25:41;98002.94;;;32.52;32.08
70445;BME280;57902;49.638;11.070;2022-07-25T06:28:15;97996.78;;;32.80;32.07
70445;BME280;57902;49.638;11.070;2022-07-25T06:30:44;97995.78;;;33.16;31.11
70445;BME280;57902;49.638;11.070;2022-07-25T06:33:10;97996.13;;;33.41;32.03
70445;BME280;57902;49.638;11.070;2022-07-25T06:35:37;97993.09;;;33.51;30.12
70445;BME280;57902;49.638;11.070;2022-07-25T06:38:04;98000.22;;;33.99;29.45
70445;BME280;57902;49.638;11.070;2022-07-25T06:40:30;97991.78;;;33.95;29.76
70445;BME280;57902;49.638;11.070;2022-07-25T06:42:57;97989.56;;;34.26;28.83
70445;BME280;57902;49.638;11.070;2022-07-25T06:45:23;97995.47;;;33.81;29.50
70445;BME280;57902;49.638;11.070;2022-07-25T06:47:50;97991.47;;;33.63;30.16
70445;BME280;57902;49.638;11.070;2022-07-25T06:50:18;97993.44;;;33.83;29.67
70445;BME280;57902;49.638;11.070;2022-07-25T06:52:46;97981.13;;;34.09;29.21
70445;BME280;57902;49.638;11.070;2022-07-25T06:55:14;97977.97;;;33.78;29.11
70445;BME280;57902;49.638;11.070;2022-07-25T06:57:41;97973.91;;;33.89;29.68
70445;BME280;57902;49.638;11.070;2022-07-25T07:00:10;97978.81;;;33.79;30.52
70445;BME280;57902;49.638;11.070;2022-07-25T07:02:51;97969.59;;;34.15;29.12
70445;BME280;57902;49.638;11.070;2022-07-25T07:05:19;97968.94;;;33.93;29.46
70445;BME280;57902;49.638;11.070;2022-07-25T07:07:46;97965.69;;;34.04;29.84
70445;BME280;57902;49.638;11.070;2022-07-25T07:10:13;97966.56;;;34.45;28.93
70445;BME280;57902;49.638;11.070;2022-07-25T07:12:40;97963.84;;;34.65;27.81
70445;BME280;57902;49.638;11.070;2022-07-25T07:15:07;97968.78;;;34.88;28.49
70445;BME280;57902;49.638;11.070;2022-07-25T07:17:34;97968.66;;;35.35;27.52
70445;BME280;57902;49.638;11.070;2022-07-25T07:20:00;97963.78;;;35.57;26.88
70445;BME280;57902;49.638;11.070;2022-07-25T07:22:28;97968.00;;;35.39;27.14
70445;BME280;57902;49.638;11.070;2022-07-25T07:24:55;97962.91;;;35.31;27.29
70445;BME280;57902;49.638;11.070;2022-07-25T07:27:22;97965.53;;;35.83;26.08
70445;BME280;57902;49.638;11.070;2022-07-25T07:29:49;97963.41;;;35.92;26.22
70445;BME280;57902;49.638;11.070;2022-07-25T07:32:16;97963.06;;;36.14;25.66
70445;BME280;57902;49.638;11.070;2022-07-25T07:34:42;97961.81;;;36.41;25.80
70445;BME280;57902;49.638;11.070;2022-07-25T07:37:09;97956.88;;;36.38;26.70
70445;BME280;57902;49.638;11.070;2022-07-25T07:39:36;97961.00;;;36.09;25.05
70445;BME280;57902;49.638;11.070;2022-07-25T07:42:02;97954.94;;;36.46;24.85
70445;BME280;57902;49.638;11.070;2022-07-25T07:44:30;97951.31;;;36.84;23.76
70445;BME280;57902;49.638;11.070;2022-07-25T07:46:56;97943.34;;;36.77;25.14
70445;BME280;57902;49.638;11.070;2022-07-25T07:49:27;97943.63;;;36.87;26.01
70445;BME280;57902;49.638;11.070;2022-07-25T07:51:55;97940.56;;;37.21;25.49
70445;BME280;57902;49.638;11.070;2022-07-25T07:54:21;97936.72;;;37.77;24.46
70445;BME280;57902;49.638;11.070;2022-07-25T07:57:06;97929.94;;;37.87;23.30
70445;BME280;57902;49.638;11.070;2022-07-25T07:59:33;97932.88;;;37.85;23.04
70445;BME280;57902;49.638;11.070;2022-07-25T08:02:00;97934.53;;;37.98;22.90
70445;BME280;57902;49.638;11.070;2022-07-25T08:04:27;97929.59;;;37.83;22.59
70445;BME280;57902;49.638;11.070;2022-07-25T08:06:53;97919.34;;;38.04;23.02
70445;BME280;57902;49.638;11.070;2022-07-25T08:09:20;97928.19;;;37.80;21.85
70445;BME280;57902;49.638;11.070;2022-07-25T08:11:46;97921.63;;;38.30;21.59
70445;BME280;57902;49.638;11.070;2022-07-25T08:14:13;97918.06;;;38.06;22.62
70445;BME280;57902;49.638;11.070;2022-07-25T08:16:39;97917.13;;;38.01;21.15
70445;BME280;57902;49.638;11.070;2022-07-25T08:19:06;97909.28;;;37.99;21.72
70445;BME280;57902;49.638;11.070;2022-07-25T08:21:32;97912.22;;;38.09;21.56
70445;BME280;57902;49.638;11.070;2022-07-25T08:23:59;97899.47;;;38.05;21.80
70445;BME280;57902;49.638;11.070;2022-07-25T08:26:25;97903.75;;;37.40;22.07
70445;BME280;57902;49.638;11.070;2022-07-25T08:28:53;97911.13;;;37.44;22.83
70445;BME280;57902;49.638;11.070;2022-07-25T08:31:39;97895.81;;;37.87;22.38
70445;BME280;57902;49.638;11.070;2022-07-25T08:34:06;97887.78;;;38.23;21.81
70445;BME280;57902;49.638;11.070;2022-07-25T08:36:33;97887.56;;;38.36;21.07
70445;BME280;57902;49.638;11.070;2022-07-25T08:39:00;97895.72;;;38.65;21.81
70445;BME280;57902;49.638;11.070;2022-07-25T08:41:27;97892.69;;;38.73;21.11
70445;BME280;57902;49.638;11.070;2022-07-25T08:43:54;97895.13;;;38.75;20.66
70445;BME280;57902;49.638;11.070;2022-07-25T08:46:20;97893.63;;;38.55;20.38
70445;BME280;57902;49.638;11.070;2022-07-25T08:48:48;97891.75;;;38.44;20.83
70445;BME280;57902;49.638;11.070;2022-07-25T08:51:15;97881.69;;;38.15;21.00
70445;BME280;57902;49.638;11.070;2022-07-25T08:53:42;97884.53;;;38.21;21.22
70445;BME280;57902;49.638;11.070;2022-07-25T08:56:13;97879.94;;;38.45;20.37
70445;BME280;57902;49.638;11.070;2022-07-25T08:58:46;97871.97;;;38.26;20.47
70445;BME280;57902;49.638;11.070;2022-07-25T09:01:13;97870.47;;;38.30;20.72
70445;BME280;57902;49.638;11.070;2022-07-25T09:03:40;97862.69;;;37.87;21.47
70445;BME280;57902;49.638;11.070;2022-07-25T09:06:21;97863.41;;;37.82;21.13
70445;BME280;57902;49.638;11.070;2022-07-25T09:08:55;97861.16;;;37.37;21.77
70445;BME280;57902;49.638;11.070;2022-07-25T09:11:36;97849.16;;;37.51;22.10
70445;BME280;57902;49.638;11.070;2022-07-25T09:14:05;97850.53;;;37.72;21.53
70445;BME280;57902;49.638;11.070;2022-07-25T09:16:38;97849.16;;;37.51;22.56
70445;BME280;57902;49.638;11.070;2022-07-25T09:19:15;97842.25;;;37.43;21.51
70445;BME280;57902;49.638;11.070;2022-07-25T09:21:44;97839.69;;;37.48;21.74
70445;BME280;57902;49.638;11.070;2022-07-25T09:24:14;97835.03;;;37.56;21.10
70445;BME280;57902;49.638;11.070;2022-07-25T09:26:46;97830.34;;;37.63;21.19
70445;BME280;57902;49.638;11.070;2022-07-25T09:29:23;97837.81;;;37.37;21.56
70445;BME280;57902;49.638;11.070;2022-07-25T09:31:51;97832.88;;;37.34;22.09
70445;BME280;57902;49.638;11.070;2022-07-25T09:34:38;97826.31;;;37.30;22.12
70445;BME280;57902;49.638;11.070;2022-07-25T09:37:10;97812.59;;;37.62;21.36
70445;BME280;57902;49.638;11.070;2022-07-25T09:39:41;97813.34;;;37.81;21.51
70445;BME280;57902;49.638;11.070;2022-07-25T09:42:29;97810.19;;;37.96;21.10
70445;BME280;57902;49.638;11.070;2022-07-25T09:45:06;97811.38;;;38.00;20.87
70445;BME280;57902;49.638;11.070;2022-07-25T09:47:35;97806.56;;;38.02;21.08
70445;BME280;57902;49.638;11.070;2022-07-25T09:50:04;97808.22;;;37.79;22.26
70445;BME280;57902;49.638;11.070;2022-07-25T09:52:30;97800.00;;;37.74;21.15
70445;BME280;57902;49.638;11.070;2022-07-25T09:55:01;97804.63;;;37.55;21.39
70445;BME280;57902;49.638;11.070;2022-07-25T09:57:32;97795.38;;;37.39;22.75
70445;BME280;57902;49.638;11.070;2022-07-25T09:59:59;97796.09;;;37.46;22.54
70445;BME280;57902;49.638;11.070;2022-07-25T10:05:24;97790.22;;;37.38;21.63
70445;BME280;57902;49.638;11.070;2022-07-25T10:07:55;97796.78;;;37.11;21.49
70445;BME280;57902;49.638;11.070;2022-07-25T10:10:25;97789.53;;;37.00;22.29
70445;BME280;57902;49.638;11.070;2022-07-25T10:13:04;97778.31;;;37.03;22.20
70445;BME280;57902;49.638;11.070;2022-07-25T10:15:43;97778.97;;;36.68;21.83
70445;BME280;57902;49.638;11.070;2022-07-25T10:18:11;97780.00;;;36.67;22.42
70445;BME280;57902;49.638;11.070;2022-07-25T10:20:38;97783.50;;;36.86;21.92
70445;BME280;57902;49.638;11.070;2022-07-25T10:23:16;97778.44;;;36.78;22.68
70445;BME280;57902;49.638;11.070;2022-07-25T10:25:43;97767.53;;;36.91;21.33
70445;BME280;57902;49.638;11.070;2022-07-25T10:28:18;97774.31;;;37.06;20.13
70445;BME280;57902;49.638;11.070;2022-07-25T10:30:45;97778.41;;;36.97;21.76
70445;BME280;57902;49.638;11.070;2022-07-25T10:33:16;97773.47;;;36.75;22.09
70445;BME280;57902;49.638;11.070;2022-07-25T10:35:44;97778.59;;;36.83;21.82
70445;BME280;57902;49.638;11.070;2022-07-25T10:38:10;97765.38;;;36.82;21.82
70445;BME280;57902;49.638;11.070;2022-07-25T10:40:40;97765.38;;;36.82;21.94
70445;BME280;57902;49.638;11.070;2022-07-25T10:43:16;97755.00;;;36.85;22.66
70445;BME280;57902;49.638;11.070;2022-07-25T10:45:51;97753.50;;;36.89;21.68
70445;BME280;57902;49.638;11.070;2022-07-25T10:48:26;97753.25;;;36.91;21.91
70445;BME280;57902;49.638;11.070;2022-07-25T10:51:06;97759.56;;;36.85;22.21
70445;BME280;57902;49.638;11.070;2022-07-25T10:53:35;97753.16;;;36.67;22.39
70445;BME280;57902;49.638;11.070;2022-07-25T10:56:19;97745.09;;;36.67;22.81
70445;BME280;57902;49.638;11.070;2022-07-25T10:59:00;97742.94;;;36.57;22.89
70445;BME280;57902;49.638;11.070;2022-07-25T11:01:32;97747.78;;;36.67;22.31
70445;BME280;57902;49.638;11.070;2022-07-25T11:04:04;97742.78;;;36.71;22.87
70445;BME280;57902;49.638;11.070;2022-07-25T11:06:41;97738.03;;;36.54;23.03
70445;BME280;57902;49.638;11.070;2022-07-25T11:09:25;97736.28;;;36.60;23.34
70445;BME280;57902;49.638;11.070;2022-07-25T11:11:55;97733.25;;;36.56;23.16
70445;BME280;57902;49.638;11.070;2022-07-25T11:14:24;97735.56;;;36.53;23.32
70445;BME280;57902;49.638;11.070;2022-07-25T11:17:07;97727.66;;;36.58;22.95
70445;BME280;57902;49.638;11.070;2022-07-25T11:19:34;97720.25;;;36.41;23.34
70445;BME280;57902;49.638;11.070;2022-07-25T11:22:01;97709.41;;;36.30;23.41
70445;BME280;57902;49.638;11.070;2022-07-25T11:24:39;97703.41;;;36.34;23.36
70445;BME280;57902;49.638;11.070;2022-07-25T11:27:07;97707.38;;;36.25;23.06
70445;BME280;57902;49.638;11.070;2022-07-25T11:29:38;97704.06;;;36.30;23.24
70445;BME280;57902;49.638;11.070;2022-07-25T11:32:09;97696.00;;;36.30;23.26
70445;BME280;57902;49.638;11.070;2022-07-25T11:34:41;97695.47;;;36.39;23.15
70445;BME280;57902;49.638;11.070;2022-07-25T11:37:09;97685.47;;;36.47;23.39
70445;BME280;57902;49.638;11.070;2022-07-25T11:39:39;97683.53;;;36.54;22.63
70445;BME280;57902;49.638;11.070;2022-07-25T11:42:08;97680.38;;;36.57;22.74
70445;BME280;57902;49.638;11.070;2022-07-25T11:44:40;97672.34;;;36.69;22.62
70445;BME280;57902;49.638;11.070;2022-07-25T11:49:49;97659.63;;;36.64;21.84
70445;BME280;57902;49.638;11.070;2022-07-25T11:52:24;97658.13;;;36.68;22.40
70445;BME280;57902;49.638;11.070;2022-07-25T11:57:22;97654.13;;;37.01;21.63
70445;BME280;57902;49.638;11.070;2022-07-25T11:59:49;97644.06;;;36.97;22.55
70445;BME280;57902;49.638;11.070;2022-07-25T12:02:30;97643.00;;;36.86;22.52
70445;BME280;57902;49.638;11.070;2022-07-25T12:04:59;97638.09;;;36.83;22.26
70445;BME280;57902;49.638;11.070;2022-07-25T12:10:02;97639.22;;;36.75;22.54
70445;BME280;57902;49.638;11.070;2022-07-25T12:12:50;97624.97;;;36.74;22.74
70445;BME280;57902;49.638;11.070;2022-07-25T12:15:26;97636.97;;;36.72;22.28
70445;BME280;57902;49.638;11.070;2022-07-25T12:17:55;97628.75;;;36.97;21.82
70445;BME280;57902;49.638;11.070;2022-07-25T12:20:23;97623.75;;;36.89;22.15
70445;BME280;57902;49.638;11.070;2022-07-25T12:22:54;97620.34;;;36.82;22.36
70445;BME280;57902;49.638;11.070;2022-07-25T12:25:21;97619.78;;;36.91;21.89
70445;BME280;57902;49.638;11.070;2022-07-25T12:27:56;97633.22;;;37.03;21.02
70445;BME280;57902;49.638;11.070;2022-07-25T12:30:25;97619.19;;;37.01;20.82
70445;BME280;57902;49.638;11.070;2022-07-25T12:32:53;97613.81;;;37.01;21.33
70445;BME280;57902;49.638;11.070;2022-07-25T12:35:19;97611.38;;;37.00;21.15
70445;BME280;57902;49.638;11.070;2022-07-25T12:37:46;97606.69;;;36.95;21.18
70445;BME280;57902;49.638;11.070;2022-07-25T12:40:14;97607.41;;;36.90;21.98
70445;BME280;57902;49.638;11.070;2022-07-25T12:42:42;97610.09;;;36.90;22.02
70445;BME280;57902;49.638;11.070;2022-07-25T12:45:11;97608.59;;;37.06;20.77
70445;BME280;57902;49.638;11.070;2022-07-25T12:47:39;97603.78;;;37.08;21.16
70445;BME280;57902;49.638;11.070;2022-07-25T12:50:06;97603.09;;;37.25;20.70
70445;BME280;57902;49.638;11.070;2022-07-25T12:52:32;97597.47;;;37.15;21.32
70445;BME280;57902;49.638;11.070;2022-07-25T12:54:59;97592.00;;;37.33;20.27
70445;BME280;57902;49.638;11.070;2022-07-25T12:57:26;97592.72;;;37.28;20.72
70445;BME280;57902;49.638;11.070;2022-07-25T12:59:56;97586.84;;;37.20;20.75
70445;BME280;57902;49.638;11.070;2022-07-25T13:02:23;97579.59;;;37.20;20.71
70445;BME280;57902;49.638;11.070;2022-07-25T13:04:50;97584.63;;;37.17;20.86
70445;BME280;57902;49.638;11.070;2022-07-25T13:07:16;97586.06;;;37.31;20.28